Time;durP1;ratioP1;P1;durP2;ratioP2;P2;SDS_P1;SDS_P2;PMS_P1;PMS_P2;Temp;Humidity;BMP_temperature;BMP_pressure;BME280_temperature;BME280_humidity;BME280_pressure;Samples;Min_cycle;Max_cycle;Signal;HPM_P1;HPM_P2
2022/02/12 00:00:37;;;;;;;21.15;14.35;;;1.90;99.90;;;;;;2586764;54;20203;31
2022/02/12 00:03:10;;;;;;;23.70;13.90;;;1.80;99.90;;;;;;2603779;54;20036;31
2022/02/12 00:05:45;;;;;;;18.65;11.70;;;1.90;99.90;;;;;;2590007;54;20922;31
2022/02/12 00:08:18;;;;;;;25.10;13.13;;;1.90;99.90;;;;;;2586716;54;21446;31
2022/02/12 00:10:50;;;;;;;26.02;13.52;;;1.80;99.90;;;;;;2590899;54;20022;31
2022/02/12 00:13:24;;;;;;;21.50;12.75;;;1.90;99.90;;;;;;2585854;54;19934;31
2022/02/12 00:15:57;;;;;;;22.05;12.48;;;1.90;99.90;;;;;;2608882;46;20857;31
2022/02/12 00:18:28;;;;;;;23.65;12.70;;;1.90;99.90;;;;;;2589874;54;20026;31
2022/02/12 00:21:02;;;;;;;20.63;12.70;;;1.90;99.90;;;;;;2587710;54;20963;31
2022/02/12 00:23:34;;;;;;;23.30;12.50;;;2.00;99.90;;;;;;2588052;54;20968;31
2022/02/12 00:26:07;;;;;;;21.95;12.70;;;1.90;99.90;;;;;;2599348;54;20084;31
2022/02/12 00:28:41;;;;;;;22.63;13.15;;;1.90;99.90;;;;;;2586720;54;20023;31
2022/02/12 00:31:14;;;;;;;21.50;12.32;;;2.00;99.90;;;;;;2586713;54;21164;31
2022/02/12 00:33:46;;;;;;;24.70;13.57;;;2.00;99.90;;;;;;2586424;54;20896;31
2022/02/12 00:36:19;;;;;;;24.50;13.15;;;2.00;99.90;;;;;;2586792;54;20863;31
2022/02/12 00:38:52;;;;;;;20.85;13.38;;;2.10;99.90;;;;;;2586134;54;20775;31
2022/02/12 00:41:25;;;;;;;22.00;13.60;;;2.00;99.90;;;;;;2586815;47;20026;31
2022/02/12 00:43:59;;;;;;;28.20;14.25;;;2.00;99.90;;;;;;2604523;46;20133;31
2022/02/12 00:46:34;;;;;;;23.90;13.80;;;2.00;99.90;;;;;;2586192;54;20022;31
2022/02/12 00:49:08;;;;;;;20.33;12.82;;;2.00;99.90;;;;;;2586737;54;20124;31
2022/02/12 00:51:39;;;;;;;24.25;13.73;;;2.00;99.90;;;;;;2589266;39;22400;31
2022/02/12 00:54:12;;;;;;;22.23;11.05;;;2.00;99.90;;;;;;2600776;46;20424;31
2022/02/12 00:56:44;;;;;;;19.92;12.85;;;2.00;99.90;;;;;;2587070;46;21076;31
2022/02/12 00:59:18;;;;;;;19.25;12.10;;;1.90;99.90;;;;;;2586505;54;20855;31
2022/02/12 01:01:51;;;;;;;26.55;12.25;;;1.90;99.90;;;;;;2586499;54;20851;31
2022/02/12 01:04:23;;;;;;;20.05;11.50;;;1.90;99.90;;;;;;2586896;54;20879;31
2022/02/12 01:06:54;;;;;;;19.35;11.63;;;1.80;99.90;;;;;;2605648;46;20972;31
2022/02/12 01:09:29;;;;;;;21.08;11.05;;;1.70;99.90;;;;;;2586277;54;20027;31
2022/02/12 01:12:01;;;;;;;19.03;11.00;;;1.60;99.90;;;;;;2586673;54;20886;31
2022/02/12 01:14:36;;;;;;;18.48;10.27;;;1.60;99.90;;;;;;2586562;54;20061;31
2022/02/12 01:17:11;;;;;;;22.55;8.82;;;1.50;99.90;;;;;;2606208;54;20100;31
2022/02/12 01:19:43;;;;;;;15.30;8.83;;;1.40;99.90;;;;;;2590341;54;20063;31
2022/02/12 01:22:17;;;;;;;15.35;7.75;;;1.40;99.90;;;;;;2602133;54;20082;31
2022/02/12 01:24:50;;;;;;;15.68;7.97;;;1.30;99.90;;;;;;2588011;54;20112;31
2022/02/12 01:27:23;;;;;;;15.80;7.65;;;1.30;99.90;;;;;;2586784;54;20022;31
2022/02/12 01:29:57;;;;;;;13.80;8.10;;;1.20;99.90;;;;;;2586046;54;20734;31
2022/02/12 01:32:30;;;;;;;17.05;8.65;;;1.20;99.90;;;;;;2588029;46;20065;31
2022/02/12 01:35:01;;;;;;;15.00;8.35;;;1.20;99.90;;;;;;2587793;54;20026;31
2022/02/12 01:37:34;;;;;;;19.87;8.97;;;1.20;99.90;;;;;;2619952;46;20027;31
2022/02/12 01:40:10;;;;;;;14.60;7.60;;;1.20;99.90;;;;;;2605252;54;21275;31
2022/02/12 01:45:13;;;;;;;19.95;9.20;;;1.20;99.90;;;;;;2596627;47;20272;-79
2022/02/12 01:47:45;;;;;;;17.65;8.45;;;1.20;99.90;;;;;;2682849;39;20425;31
2022/02/12 01:50:18;;;;;;;19.17;7.80;;;1.20;99.90;;;;;;2587028;54;20023;31
2022/02/12 01:52:51;;;;;;;22.65;8.45;;;1.10;99.90;;;;;;2586354;54;20027;31
2022/02/12 01:55:25;;;;;;;17.57;8.23;;;1.10;99.90;;;;;;2591355;54;20022;31
2022/02/12 01:57:57;;;;;;;13.43;8.05;;;1.00;99.90;;;;;;2593101;54;21316;31
2022/02/12 02:00:34;;;;;;;16.85;7.50;;;1.00;99.90;;;;;;2586356;54;20157;31
2022/02/12 02:03:08;;;;;;;18.80;7.63;;;1.00;99.90;;;;;;2587295;54;20071;31
2022/02/12 02:05:40;;;;;;;15.00;7.35;;;1.00;99.90;;;;;;2586570;54;20041;31
2022/02/12 02:08:13;;;;;;;18.25;7.03;;;0.90;99.90;;;;;;2586826;54;20030;31
2022/02/12 02:10:45;;;;;;;16.15;6.57;;;0.90;99.90;;;;;;2588029;39;20940;31
2022/02/12 02:13:26;;;;;;;16.90;6.88;;;0.80;99.90;;;;;;2586634;54;20905;31
2022/02/12 02:16:02;;;;;;;18.55;7.55;;;0.80;99.90;;;;;;2589058;39;20972;31
2022/02/12 02:18:34;;;;;;;13.40;6.20;;;0.80;99.90;;;;;;2587754;54;20104;31
2022/02/12 02:21:08;;;;;;;19.23;6.80;;;0.80;99.90;;;;;;2586067;54;20030;31
2022/02/12 02:23:43;;;;;;;14.48;6.70;;;0.70;99.90;;;;;;2586411;54;21543;31
2022/02/12 02:26:15;;;;;;;12.50;7.30;;;0.70;99.90;;;;;;2754838;31;20367;31
2022/02/12 02:28:50;;;;;;;17.20;6.70;;;0.70;99.90;;;;;;2586074;54;20022;31
2022/02/12 02:31:27;;;;;;;17.10;5.60;;;0.70;99.90;;;;;;2587713;54;20065;31
2022/02/12 02:34:02;;;;;;;11.65;6.20;;;0.70;99.90;;;;;;2590020;54;20053;31
2022/02/12 02:36:33;;;;;;;16.95;7.00;;;0.60;99.90;;;;;;2586576;54;20962;31
2022/02/12 02:39:08;;;;;;;17.38;6.55;;;0.60;99.90;;;;;;2684394;39;20907;31
2022/02/12 02:41:41;;;;;;;11.60;5.80;;;0.60;99.90;;;;;;2586778;54;20035;31
2022/02/12 02:44:14;;;;;;;11.10;5.82;;;0.60;99.90;;;;;;2586023;54;20941;31
2022/02/12 02:46:47;;;;;;;12.30;6.27;;;0.60;99.90;;;;;;2585738;54;20082;31
2022/02/12 02:49:21;;;;;;;14.75;7.55;;;0.60;99.90;;;;;;2585791;54;20396;31
2022/02/12 02:57:28;;;;;;;23.50;8.10;;;0.40;99.90;;;;;;2585626;54;20026;31
2022/02/12 03:00:00;;;;;;;24.85;9.10;;;0.40;99.90;;;;;;2683869;39;20449;31
2022/02/12 03:02:34;;;;;;;17.67;7.90;;;0.40;99.90;;;;;;2683658;39;20365;31
2022/02/12 03:05:08;;;;;;;22.23;8.27;;;0.40;99.90;;;;;;2587278;47;20479;31
2022/02/12 03:07:41;;;;;;;18.35;8.55;;;0.30;99.90;;;;;;2588069;46;20023;31
2022/02/12 03:10:15;;;;;;;24.90;8.95;;;0.30;99.90;;;;;;2587168;54;20027;31
2022/02/12 03:12:47;;;;;;;24.20;8.77;;;0.20;99.90;;;;;;2592787;54;20523;31
2022/02/12 03:15:21;;;;;;;23.93;8.70;;;0.20;99.90;;;;;;2586634;54;20050;31
2022/02/12 03:17:54;;;;;;;19.08;7.07;;;0.20;99.90;;;;;;2605320;46;21184;31
2022/02/12 03:20:26;;;;;;;17.40;7.30;;;0.10;99.90;;;;;;2586699;54;20955;31
2022/02/12 03:23:00;;;;;;;14.65;6.75;;;0.10;99.90;;;;;;2586472;54;20835;31
2022/02/12 03:25:35;;;;;;;13.80;5.80;;;0.10;99.90;;;;;;2586494;54;20850;31
2022/02/12 03:28:09;;;;;;;16.63;7.03;;;0.10;99.90;;;;;;2586947;46;20049;31
2022/02/12 03:30:43;;;;;;;13.25;5.70;;;0.00;99.90;;;;;;2587090;54;21288;31
2022/02/12 03:33:17;;;;;;;15.93;6.60;;;0.00;99.90;;;;;;2605288;46;20881;31
2022/02/12 03:35:53;;;;;;;13.05;5.80;;;0.00;99.90;;;;;;2586790;54;20855;31
2022/02/12 03:38:27;;;;;;;18.15;6.10;;;0.00;99.90;;;;;;2586367;54;20046;31
2022/02/12 03:41:06;;;;;;;13.77;5.55;;;0.00;99.90;;;;;;2684410;39;21415;31
2022/02/12 03:46:09;;;;;;;12.52;5.80;;;-0.10;99.90;;;;;;2591630;46;20445;31
2022/02/12 03:51:11;;;;;;;11.10;4.93;;;-0.10;99.90;;;;;;2586707;54;20094;31
2022/02/12 03:53:45;;;;;;;18.85;5.75;;;-0.10;99.90;;;;;;2586647;54;20701;31
2022/02/12 03:56:21;;;;;;;14.45;5.03;;;-0.10;99.90;;;;;;2586403;54;20046;31
2022/02/12 03:58:54;;;;;;;11.93;4.72;;;-0.10;99.90;;;;;;2586737;54;20922;31
2022/02/12 04:01:27;;;;;;;16.80;6.05;;;-0.10;99.90;;;;;;2586794;54;20827;31
2022/02/12 04:04:02;;;;;;;16.08;5.55;;;-0.10;99.90;;;;;;2587049;46;20047;31
2022/02/12 04:06:39;;;;;;;13.98;6.65;;;-0.10;99.90;;;;;;2586554;54;20019;31
2022/02/12 04:09:11;;;;;;;13.80;6.35;;;-0.20;99.90;;;;;;2586448;54;20034;31
2022/02/12 04:11:47;;;;;;;13.68;5.80;;;-0.20;99.90;;;;;;2586504;54;21453;31
2022/02/12 04:14:21;;;;;;;14.10;6.18;;;-0.20;99.90;;;;;;2586410;54;20899;31
2022/02/12 04:16:56;;;;;;;13.05;6.03;;;-0.30;99.90;;;;;;2586473;54;20024;31
2022/02/12 04:19:28;;;;;;;14.32;5.43;;;-0.20;99.90;;;;;;2587272;46;21118;31
2022/02/12 04:22:01;;;;;;;15.90;5.93;;;-0.20;99.90;;;;;;2586469;54;20932;31
2022/02/12 04:24:34;;;;;;;14.18;5.10;;;-0.20;99.90;;;;;;2586777;54;20974;31
2022/02/12 04:27:11;;;;;;;15.70;6.53;;;-0.20;99.90;;;;;;2586284;54;20031;31
2022/02/12 04:29:43;;;;;;;17.48;5.55;;;-0.20;99.90;;;;;;2586222;54;20046;31
2022/02/12 04:32:17;;;;;;;12.90;5.03;;;-0.30;99.90;;;;;;2605156;46;20751;31
2022/02/12 04:34:50;;;;;;;15.57;5.15;;;-0.30;99.90;;;;;;2586596;54;20922;31
2022/02/12 04:37:25;;;;;;;17.20;5.78;;;-0.30;99.90;;;;;;2586285;54;20027;31
2022/02/12 04:39:58;;;;;;;17.08;6.65;;;-0.30;99.90;;;;;;2586243;54;20033;31
2022/02/12 04:42:35;;;;;;;20.30;7.75;;;-0.40;99.90;;;;;;2586536;54;20022;31
2022/02/12 04:45:08;;;;;;;;;;;-0.40;99.90;;;;;;2586718;54;20046;31
2022/02/12 04:47:43;;;;;;;19.35;6.45;;;-0.40;99.90;;;;;;2586663;54;20820;31
2022/02/12 04:50:15;;;;;;;14.27;6.37;;;-0.40;99.90;;;;;;2586214;54;20049;31
2022/02/12 04:52:49;;;;;;;12.05;5.22;;;-0.40;99.90;;;;;;2586309;54;20073;31
2022/02/12 04:55:23;;;;;;;10.30;5.53;;;-0.40;99.90;;;;;;2586335;54;20847;31
2022/02/12 04:57:59;;;;;;;14.70;5.90;;;-0.40;99.90;;;;;;2586447;54;20722;31
2022/02/12 05:00:32;;;;;;;11.60;5.60;;;-0.40;99.90;;;;;;2605007;46;20752;31
2022/02/12 05:03:07;;;;;;;13.32;5.78;;;-0.40;99.90;;;;;;2605368;46;20859;31
2022/02/12 05:05:41;;;;;;;12.15;5.47;;;-0.50;99.90;;;;;;2586361;54;20743;31
2022/02/12 05:08:14;;;;;;;11.43;5.05;;;-0.50;99.90;;;;;;2586397;54;20027;31
2022/02/12 05:10:48;;;;;;;13.55;5.47;;;-0.50;99.90;;;;;;2586501;54;20018;31
2022/02/12 05:13:24;;;;;;;8.50;4.35;;;-0.50;99.90;;;;;;2586385;54;20921;31
2022/02/12 05:15:56;;;;;;;13.90;4.80;;;-0.50;99.90;;;;;;2586270;54;20942;31
2022/02/12 05:18:30;;;;;;;10.15;4.35;;;-0.50;99.90;;;;;;2605045;46;20038;31
2022/02/12 05:21:04;;;;;;;12.30;4.30;;;-0.50;99.90;;;;;;2586304;54;20817;31
2022/02/12 05:23:38;;;;;;;9.95;4.40;;;-0.60;99.90;;;;;;2586246;54;20037;31
2022/02/12 05:26:11;;;;;;;12.82;4.22;;;-0.60;99.90;;;;;;2586110;54;20855;31
2022/02/12 05:28:49;;;;;;;9.20;3.90;;;-0.70;99.90;;;;;;2587167;46;20878;31
2022/02/12 05:31:24;;;;;;;9.73;4.35;;;-0.70;99.90;;;;;;2586252;54;20067;31
2022/02/12 05:33:57;;;;;;;9.68;4.40;;;-0.70;99.90;;;;;;2586283;54;20076;31
2022/02/12 05:36:31;;;;;;;13.15;6.10;;;-0.70;99.90;;;;;;2586053;54;20819;31
2022/02/12 05:39:05;;;;;;;15.00;5.70;;;-0.80;99.90;;;;;;2604802;46;20817;31
2022/02/12 05:41:40;;;;;;;12.88;5.57;;;-0.90;99.90;;;;;;2586361;54;20037;31
2022/02/12 05:44:16;;;;;;;15.57;6.00;;;-0.90;99.90;;;;;;2586396;54;20026;31
2022/02/12 05:46:52;;;;;;;14.93;4.93;;;-0.90;99.90;;;;;;2585985;54;20046;31
2022/02/12 05:49:24;;;;;;;9.75;4.60;;;-0.90;99.90;;;;;;2586182;54;20049;31
2022/02/12 05:51:57;;;;;;;11.33;4.77;;;-0.90;99.90;;;;;;2586290;54;20046;31
2022/02/12 05:54:31;;;;;;;16.20;5.15;;;-1.00;99.90;;;;;;2586187;54;20026;31
2022/02/12 05:57:05;;;;;;;9.90;4.00;;;-1.00;99.90;;;;;;2586233;54;20896;31
2022/02/12 05:59:42;;;;;;;12.97;5.30;;;-1.00;99.90;;;;;;2586239;54;20058;31
2022/02/12 06:02:15;;;;;;;9.45;4.88;;;-1.00;99.90;;;;;;2586082;54;20089;31
2022/02/12 06:04:48;;;;;;;13.60;5.60;;;-1.10;99.90;;;;;;2586086;54;20905;31
2022/02/12 06:07:23;;;;;;;15.60;5.70;;;-1.10;99.90;;;;;;2585915;54;20864;31
2022/02/12 06:09:58;;;;;;;12.65;4.80;;;-1.10;99.90;;;;;;2586110;54;20774;31
2022/02/12 06:12:32;;;;;;;12.77;5.50;;;-1.10;99.90;;;;;;2586168;54;20742;31
2022/02/12 06:15:10;;;;;;;13.65;5.75;;;-1.10;99.90;;;;;;2586018;54;20026;31
2022/02/12 06:17:43;;;;;;;9.43;4.05;;;-1.10;99.90;;;;;;2600189;47;20026;31
2022/02/12 06:20:17;;;;;;;15.95;6.03;;;-1.10;99.90;;;;;;2586126;54;20124;31
2022/02/12 06:22:50;;;;;;;12.60;6.63;;;-1.10;99.90;;;;;;2585928;54;20100;31
2022/02/12 06:25:23;;;;;;;15.70;6.23;;;-1.10;99.90;;;;;;2585974;54;20061;31
2022/02/12 06:27:57;;;;;;;13.80;6.47;;;-1.10;99.90;;;;;;2585960;54;20243;31
2022/02/12 06:30:35;;;;;;;16.00;5.80;;;-1.10;99.90;;;;;;2585894;54;20042;31
2022/02/12 06:33:09;;;;;;;11.45;5.45;;;-1.10;99.90;;;;;;2604716;47;20053;31
2022/02/12 06:35:43;;;;;;;19.88;6.40;;;-1.10;99.90;;;;;;2585986;54;20919;31
2022/02/12 06:38:17;;;;;;;22.48;7.70;;;-1.10;99.90;;;;;;2586142;54;20748;31
2022/02/12 06:40:50;;;;;;;16.65;6.70;;;-1.10;99.90;;;;;;2587204;54;20742;31
2022/02/12 06:43:24;;;;;;;12.52;5.72;;;-1.10;99.90;;;;;;2587288;46;20023;31
2022/02/12 06:46:00;;;;;;;13.90;6.32;;;-1.10;99.90;;;;;;2586801;54;20887;31
2022/02/12 06:48:36;;;;;;;13.43;5.53;;;-1.00;99.90;;;;;;2586686;54;20747;31
2022/02/12 06:51:08;;;;;;;12.80;6.07;;;-1.00;99.90;;;;;;2605197;46;20546;31
2022/02/12 06:53:39;;;;;;;18.23;6.10;;;-1.00;99.90;;;;;;2586644;54;20763;31
2022/02/12 06:56:13;;;;;;;12.82;5.80;;;-0.90;99.90;;;;;;2586775;54;20771;31
2022/02/12 06:58:47;;;;;;;21.35;7.35;;;-0.90;99.90;;;;;;2586598;54;21404;31
2022/02/12 07:01:23;;;;;;;21.13;8.98;;;-0.90;99.90;;;;;;2586632;54;20057;31
2022/02/12 07:03:57;;;;;;;18.53;10.70;;;-0.90;99.90;;;;;;2587064;54;20867;31
2022/02/12 07:06:29;;;;;;;17.90;9.75;;;-0.80;99.90;;;;;;2604864;46;21179;31
2022/02/12 07:09:11;;;;;;;20.30;10.25;;;-0.80;99.90;;;;;;2605168;46;20809;31
2022/02/12 07:11:45;;;;;;;24.25;10.10;;;-0.70;99.90;;;;;;2586736;54;20775;31
2022/02/12 07:14:20;;;;;;;21.98;9.93;;;-0.30;99.90;;;;;;2586889;54;20854;31
2022/02/12 07:16:54;;;;;;;24.02;10.85;;;0.00;99.90;;;;;;2585706;54;20056;31
2022/02/12 07:19:27;;;;;;;19.13;9.50;;;0.40;99.90;;;;;;2604971;46;20037;31
2022/02/12 07:22:01;;;;;;;20.70;7.68;;;1.00;99.90;;;;;;2586651;54;20030;31
2022/02/12 07:24:34;;;;;;;17.05;7.30;;;1.50;99.90;;;;;;2604822;46;20485;31
2022/02/12 07:27:08;;;;;;;13.80;6.47;;;2.10;99.90;;;;;;2586601;54;20791;31
2022/02/12 07:29:41;;;;;;;17.67;6.70;;;2.70;99.90;;;;;;2586665;54;20052;31
2022/02/12 07:32:18;;;;;;;16.13;6.43;;;3.30;99.90;;;;;;2586490;54;20875;31
2022/02/12 07:34:51;;;;;;;13.48;5.28;;;3.90;99.90;;;;;;2586138;54;20509;31
2022/02/12 07:37:25;;;;;;;11.52;5.03;;;4.40;99.90;;;;;;2586474;54;20385;31
2022/02/12 07:39:59;;;;;;;11.88;4.75;;;4.80;99.90;;;;;;2586767;54;20822;31
2022/02/12 07:42:32;;;;;;;11.43;5.18;;;5.20;99.90;;;;;;2586555;54;20037;31
2022/02/12 07:45:07;;;;;;;15.10;4.82;;;5.70;99.90;;;;;;2586759;54;20026;31
2022/02/12 07:47:42;;;;;;;14.95;5.50;;;5.90;99.90;;;;;;2586248;54;20050;31
2022/02/12 07:50:18;;;;;;;9.00;4.80;;;6.30;99.90;;;;;;2586355;54;20763;31
2022/02/12 07:52:52;;;;;;;10.40;4.85;;;6.40;99.90;;;;;;2586438;54;21109;31
2022/02/12 07:55:24;;;;;;;11.00;5.28;;;6.80;99.90;;;;;;2586438;54;20920;31
2022/02/12 07:58:00;;;;;;;14.50;6.30;;;7.00;99.90;;;;;;2586282;54;20112;31
2022/02/12 08:00:33;;;;;;;11.25;5.88;;;7.20;99.90;;;;;;2586443;54;20050;31
2022/02/12 08:03:08;;;;;;;13.45;7.22;;;7.40;99.90;;;;;;2586646;54;20875;31
2022/02/12 08:05:41;;;;;;;17.40;8.47;;;7.50;99.90;;;;;;2586137;54;20752;31
2022/02/12 08:08:15;;;;;;;19.67;8.45;;;7.50;99.90;;;;;;2586408;54;20293;31
2022/02/12 08:13:34;;;;;;;24.02;11.48;;;7.90;99.90;;;;;;2586389;54;20026;31
2022/02/12 08:16:09;;;;;;;16.00;8.27;;;8.00;99.90;;;;;;2586572;54;20131;31
2022/02/12 08:18:45;;;;;;;14.30;6.10;;;7.90;99.90;;;;;;2586252;54;20477;31
2022/02/12 08:21:18;;;;;;;11.85;6.45;;;8.00;99.90;;;;;;2586357;54;20080;31
2022/02/12 08:23:52;;;;;;;13.02;6.00;;;8.10;99.90;;;;;;2586424;54;20022;31
2022/02/12 08:26:26;;;;;;;15.20;5.50;;;8.10;99.90;;;;;;2586478;54;20037;31
2022/02/12 08:28:58;;;;;;;12.40;6.05;;;8.00;99.90;;;;;;2586193;54;20873;31
2022/02/12 08:31:33;;;;;;;14.50;5.50;;;8.10;99.90;;;;;;2586276;54;20735;31
2022/02/12 08:34:09;;;;;;;9.87;4.97;;;8.00;99.90;;;;;;2586474;54;21086;31
2022/02/12 08:36:43;;;;;;;12.60;5.00;;;8.10;99.90;;;;;;2586356;54;20097;31
2022/02/12 08:39:15;;;;;;;10.50;5.28;;;8.30;99.90;;;;;;2586250;54;20151;31
2022/02/12 08:41:50;;;;;;;12.17;5.87;;;8.50;99.90;;;;;;2586410;54;20860;31
2022/02/12 08:44:24;;;;;;;15.35;5.95;;;8.80;99.90;;;;;;2586338;54;20081;31
2022/02/12 08:46:56;;;;;;;9.93;5.75;;;9.00;99.90;;;;;;2586360;54;20978;31
2022/02/12 08:49:30;;;;;;;15.98;5.82;;;8.90;99.90;;;;;;2586247;54;20956;31
2022/02/12 08:52:03;;;;;;;14.43;6.72;;;8.90;99.90;;;;;;2591776;46;20049;31
2022/02/12 08:54:37;;;;;;;17.17;7.10;;;9.20;99.90;;;;;;2591388;46;20441;31
2022/02/12 08:57:10;;;;;;;15.60;7.15;;;9.10;99.90;;;;;;2586505;54;20034;31
2022/02/12 08:59:43;;;;;;;15.90;6.60;;;8.90;99.90;;;;;;2586259;54;20151;31
2022/02/12 09:02:15;;;;;;;12.23;6.72;;;9.00;99.90;;;;;;2590955;46;20840;31
2022/02/12 09:04:51;;;;;;;12.60;6.25;;;9.10;99.90;;;;;;2586485;54;20116;31
2022/02/12 09:07:28;;;;;;;18.75;6.60;;;9.00;99.90;;;;;;2586383;54;20841;31
2022/02/12 09:10:02;;;;;;;12.45;6.00;;;9.10;99.90;;;;;;2586277;54;20763;31
2022/02/12 09:12:39;;;;;;;11.47;5.97;;;9.20;99.90;;;;;;2605081;46;20856;31
2022/02/12 09:15:14;;;;;;;14.00;5.20;;;9.30;99.90;;;;;;2586380;54;20867;31
2022/02/12 09:17:48;;;;;;;13.90;5.50;;;9.00;99.90;;;;;;2586226;54;20724;31
2022/02/12 09:20:25;;;;;;;16.97;5.60;;;8.90;99.90;;;;;;2586023;54;21141;31
2022/02/12 09:22:58;;;;;;;13.00;4.90;;;9.00;99.90;;;;;;2586484;54;20757;31
2022/02/12 09:25:30;;;;;;;14.35;5.35;;;8.80;99.90;;;;;;2586134;54;20277;31
2022/02/12 09:28:04;;;;;;;15.65;5.68;;;8.50;99.90;;;;;;2586507;54;20046;31
2022/02/12 09:30:38;;;;;;;13.20;5.60;;;8.30;99.90;;;;;;2586189;54;20031;31
2022/02/12 09:33:12;;;;;;;14.65;5.80;;;8.00;99.90;;;;;;2586174;54;20943;31
2022/02/12 09:35:57;;;;;;;11.90;5.55;;;7.90;99.90;;;;;;2586404;54;20905;31
2022/02/12 09:38:31;;;;;;;10.65;5.30;;;8.30;99.90;;;;;;2586274;54;20955;31
2022/02/12 09:41:05;;;;;;;12.57;5.20;;;8.40;99.90;;;;;;2604366;46;20026;31
2022/02/12 09:43:38;;;;;;;19.77;5.97;;;8.60;99.90;;;;;;2586039;54;20052;31
2022/02/12 09:46:58;;;;;;;9.60;5.30;;;8.60;99.90;;;;;;2585986;54;20048;31
2022/02/12 09:49:30;;;;;;;11.45;4.38;;;8.90;99.90;;;;;;2585690;54;20887;31
2022/02/12 09:52:06;;;;;;;8.30;4.35;;;9.20;99.90;;;;;;2586236;54;20171;31
2022/02/12 09:54:40;;;;;;;18.13;4.10;;;9.00;99.90;;;;;;2586162;54;19939;31
2022/02/12 09:57:14;;;;;;;11.00;3.20;;;8.60;99.90;;;;;;2585902;47;20994;31
2022/02/12 09:59:48;;;;;;;8.27;3.20;;;8.20;99.90;;;;;;2586026;54;20050;31
2022/02/12 10:02:22;;;;;;;13.18;3.58;;;7.80;99.90;;;;;;2585943;54;20026;31
2022/02/12 10:05:22;;;;;;;9.80;3.20;;;7.50;99.90;;;;;;2585973;54;20022;31
2022/02/12 10:08:16;;;;;;;9.20;3.63;;;7.40;99.90;;;;;;2585635;54;20034;31
2022/02/12 10:10:50;;;;;;;10.83;3.20;;;7.10;99.90;;;;;;2586023;54;20044;31
2022/02/12 10:13:23;;;;;;;11.15;3.35;;;7.00;99.90;;;;;;2684489;39;20417;31
2022/02/12 10:15:57;;;;;;;7.10;2.00;;;7.00;99.90;;;;;;2605537;46;21180;31
2022/02/12 10:18:31;;;;;;;10.02;3.10;;;7.00;99.90;;;;;;2587098;54;20870;31
2022/02/12 10:21:05;;;;;;;7.40;3.20;;;7.20;99.90;;;;;;2586558;54;20031;31
2022/02/12 10:23:42;;;;;;;7.43;2.60;;;7.40;99.90;;;;;;2586761;54;20819;31
2022/02/12 10:26:16;;;;;;;8.97;2.60;;;7.50;99.90;;;;;;2587242;54;20090;31
2022/02/12 10:28:50;;;;;;;11.32;2.53;;;7.70;99.90;;;;;;2586766;54;20030;31
2022/02/12 10:31:22;;;;;;;9.60;2.40;;;7.90;99.90;;;;;;2586971;54;20038;31
2022/02/12 10:33:54;;;;;;;9.07;2.40;;;8.00;99.90;;;;;;2606009;46;20939;31
2022/02/12 10:36:26;;;;;;;6.90;1.98;;;8.10;99.90;;;;;;2586341;54;20824;31
2022/02/12 10:39:11;;;;;;;8.75;2.65;;;8.10;99.90;;;;;;2586728;54;20892;31
2022/02/12 10:41:44;;;;;;;6.80;1.75;;;8.20;99.90;;;;;;2586777;54;21305;31
2022/02/12 10:44:16;;;;;;;7.18;1.70;;;8.20;99.90;;;;;;2588728;54;20383;31
2022/02/12 10:46:50;;;;;;;7.07;2.20;;;8.30;99.90;;;;;;2586911;54;20936;31
2022/02/12 10:49:25;;;;;;;9.07;2.67;;;8.40;99.90;;;;;;2590137;54;20086;31
2022/02/12 10:51:58;;;;;;;6.53;1.60;;;8.40;99.90;;;;;;2587458;54;20073;31
2022/02/12 10:54:41;;;;;;;9.05;2.08;;;8.30;99.90;;;;;;2587595;54;20065;31
2022/02/12 10:57:16;;;;;;;8.70;2.00;;;8.20;99.90;;;;;;2605585;46;20086;31
2022/02/12 10:59:48;;;;;;;6.00;2.10;;;8.20;99.90;;;;;;2587347;54;21173;31
2022/02/12 11:02:23;;;;;;;8.55;2.35;;;8.00;99.90;;;;;;2586732;54;20985;31
2022/02/12 11:04:54;;;;;;;7.30;1.63;;;8.10;99.90;;;;;;2586868;54;20840;31
2022/02/12 11:07:27;;;;;;;7.10;2.22;;;8.00;99.90;;;;;;2586784;54;20037;31
2022/02/12 11:10:04;;;;;;;5.40;2.00;;;8.00;99.90;;;;;;2587301;46;19941;31
2022/02/12 11:12:36;;;;;;;6.65;1.88;;;7.90;99.90;;;;;;2587043;54;20881;31
2022/02/12 11:15:10;;;;;;;8.30;2.33;;;7.90;99.90;;;;;;2587034;54;20967;31
2022/02/12 11:18:06;;;;;;;8.25;2.05;;;7.90;99.90;;;;;;2619165;46;20022;31
2022/02/12 11:20:40;;;;;;;6.70;1.90;;;7.60;99.90;;;;;;2586628;54;20855;31
2022/02/12 11:23:27;;;;;;;3.58;1.48;;;7.40;99.90;;;;;;2586306;54;20027;31
2022/02/12 11:26:26;;;;;;;9.27;2.35;;;7.20;99.90;;;;;;2589035;54;20906;31
2022/02/12 11:29:00;;;;;;;12.13;2.67;;;7.10;99.90;;;;;;2586359;54;20052;31
2022/02/12 11:31:32;;;;;;;5.93;2.33;;;7.10;99.90;;;;;;2586493;54;20310;31
2022/02/12 11:34:09;;;;;;;11.95;2.45;;;7.10;99.90;;;;;;2586979;54;20045;31
2022/02/12 11:36:44;;;;;;;8.60;2.37;;;7.00;99.90;;;;;;2587051;54;20340;31
2022/02/12 11:39:18;;;;;;;6.65;2.65;;;6.90;99.90;;;;;;2587244;54;20988;31
2022/02/12 11:41:55;;;;;;;6.50;2.60;;;6.70;99.90;;;;;;2586894;54;21264;31
2022/02/12 11:44:44;;;;;;;10.15;2.42;;;6.60;99.90;;;;;;2605831;46;20018;31
2022/02/12 11:47:18;;;;;;;6.78;2.67;;;6.50;99.90;;;;;;2586398;54;20046;31
2022/02/12 11:49:52;;;;;;;10.30;2.70;;;6.40;99.90;;;;;;2586568;54;20767;31
2022/02/12 11:52:56;;;;;;;9.10;2.40;;;6.30;99.90;;;;;;2586495;54;21047;31
2022/02/12 11:55:36;;;;;;;6.78;2.17;;;6.30;99.90;;;;;;2604409;54;21033;31
2022/02/12 11:58:12;;;;;;;7.10;2.00;;;6.20;99.90;;;;;;2586473;54;20030;31
2022/02/12 12:00:44;;;;;;;10.47;2.60;;;6.10;99.90;;;;;;2586253;54;20218;31
2022/02/12 12:03:17;;;;;;;10.52;2.67;;;6.10;99.90;;;;;;2586390;54;21065;31
2022/02/12 12:05:50;;;;;;;10.93;2.58;;;6.00;99.90;;;;;;2586573;54;20971;31
2022/02/12 12:08:24;;;;;;;8.95;2.55;;;5.80;99.90;;;;;;2586312;54;20820;31
2022/02/12 12:11:15;;;;;;;12.13;2.67;;;5.60;99.90;;;;;;2587049;46;19981;31
2022/02/12 12:13:48;;;;;;;5.43;1.85;;;5.60;99.90;;;;;;2586469;54;20053;31
2022/02/12 12:16:32;;;;;;;6.00;1.98;;;5.50;99.90;;;;;;2586938;46;20026;31
2022/02/12 12:19:07;;;;;;;6.70;2.23;;;5.50;99.90;;;;;;2590389;46;20037;31
2022/02/12 12:21:40;;;;;;;10.15;3.80;;;5.30;99.90;;;;;;2586494;54;20092;31
2022/02/12 12:24:14;;;;;;;12.00;2.70;;;5.30;99.90;;;;;;2586939;46;20048;31
2022/02/12 12:26:49;;;;;;;7.83;2.10;;;5.20;99.90;;;;;;2586616;54;20842;31
2022/02/12 12:32:13;;;;;;;10.80;3.00;;;5.20;99.90;;;;;;2586748;54;20031;31
2022/02/12 12:34:52;;;;;;;6.00;1.97;;;5.10;99.90;;;;;;2586199;54;20936;31
2022/02/12 12:37:26;;;;;;;10.77;3.90;;;5.10;99.90;;;;;;2586705;54;20110;31
2022/02/12 12:40:02;;;;;;;7.68;2.60;;;5.00;99.90;;;;;;2586492;54;20861;31
2022/02/12 12:42:36;;;;;;;12.10;4.13;;;5.00;99.90;;;;;;2586309;54;20489;31
2022/02/12 12:45:14;;;;;;;8.65;1.90;;;4.90;99.90;;;;;;2586423;54;21084;31
2022/02/12 12:47:53;;;;;;;11.07;3.63;;;4.90;99.90;;;;;;2586384;54;19941;31
2022/02/12 12:50:26;;;;;;;11.95;3.50;;;4.90;99.90;;;;;;2586515;54;20022;31
2022/02/12 12:53:06;;;;;;;11.07;2.33;;;4.80;99.90;;;;;;2586354;54;21248;31
2022/02/12 12:55:40;;;;;;;9.70;2.20;;;4.70;99.90;;;;;;2586395;54;20891;31
2022/02/12 12:58:13;;;;;;;7.57;2.75;;;4.70;99.90;;;;;;2591453;46;20041;31
2022/02/12 13:00:47;;;;;;;7.80;1.80;;;4.60;99.90;;;;;;2586311;54;20045;31
2022/02/12 13:03:26;;;;;;;12.15;2.80;;;4.60;99.90;;;;;;2586568;54;20176;31
2022/02/12 13:06:07;;;;;;;6.45;2.00;;;4.60;99.90;;;;;;2586467;54;20123;31
2022/02/12 13:08:40;;;;;;;20.65;6.10;;;4.40;99.90;;;;;;2605064;46;20035;31
2022/02/12 13:11:14;;;;;;;36.90;18.30;;;4.40;99.90;;;;;;2586335;54;20478;31
2022/02/12 13:13:46;;;;;;;20.23;9.18;;;4.30;99.90;;;;;;2586472;54;21002;31
2022/02/12 13:16:18;;;;;;;16.52;6.25;;;4.40;99.90;;;;;;2590509;46;20046;31
2022/02/12 13:18:57;;;;;;;7.53;2.20;;;4.30;99.90;;;;;;2586239;54;20046;31
2022/02/12 13:21:33;;;;;;;4.72;1.65;;;4.40;99.90;;;;;;2586013;54;20909;31
2022/02/12 13:24:07;;;;;;;4.65;1.92;;;4.30;99.90;;;;;;2586159;54;20153;31
2022/02/12 13:26:41;;;;;;;8.85;2.10;;;4.30;99.90;;;;;;2586251;54;20818;31
2022/02/12 13:29:20;;;;;;;5.25;2.03;;;4.30;99.90;;;;;;2586055;54;20907;31
2022/02/12 13:31:54;;;;;;;8.35;2.13;;;4.30;99.90;;;;;;2586365;54;20345;31
2022/02/12 13:34:32;;;;;;;7.70;2.80;;;4.30;99.90;;;;;;2586173;54;20927;31
2022/02/12 13:37:08;;;;;;;7.68;1.80;;;4.30;99.90;;;;;;2586133;54;20082;31
2022/02/12 13:39:40;;;;;;;7.97;2.30;;;4.30;99.90;;;;;;2586415;54;20097;31
2022/02/12 13:42:13;;;;;;;6.55;2.05;;;4.30;99.90;;;;;;2586251;54;20812;31
2022/02/12 13:44:47;;;;;;;11.10;3.10;;;4.30;99.90;;;;;;2585538;54;20082;31
2022/02/12 13:47:20;;;;;;;11.35;2.80;;;4.30;99.90;;;;;;2585908;54;19993;31
2022/02/12 13:49:57;;;;;;;7.40;2.40;;;4.30;99.90;;;;;;2585977;54;20120;31
2022/02/12 13:52:31;;;;;;;8.20;2.47;;;4.30;99.90;;;;;;2586206;54;20859;31